Smokey Hill High School (Aurora), Colorado
Current Conditions -  °F | °C
As of 12:53 AM on Sunday 23 Nov 2014 (Local Time) from KAPA Reporting Station
Broken Clouds Broken Clouds  
Wind Chill: 42°   Ceiling: 12000
Heat Index: 42°   Visibility: 10mi
Dew Point: 25°   Wind: 0mph
Humidity: 51%   Direction: NA
Pressure: 29.56"   Gusts: NA
Location:  39.6262°N, 104.8012°W
Report Text: KAPA 230753Z 00000KT 10SM SCT085 BKN120 BKN200 06/M04 A2956 RMK AO2 SLP975 T00561039
Loading
Personal Weather Stations






























Interactive Weather Map New forecast layout! Learn more

10-Day Weather Forecast

Advertisements
Track Severe Weather on mobile